sensor_id;sensor_type;location;lat;lon;timestamp;temperature;humidity
46508;DHT22;32223;53.654;10.014;2023-12-20T00:00:36;4.80;99.90
46508;DHT22;32223;53.654;10.014;2023-12-20T00:03:03;4.80;99.90
46508;DHT22;32223;53.654;10.014;2023-12-20T00:05:28;4.80;99.90
46508;DHT22;32223;53.654;10.014;2023-12-20T00:07:54;4.80;99.90
46508;DHT22;32223;53.654;10.014;2023-12-20T00:10:20;4.80;99.90
46508;DHT22;32223;53.654;10.014;2023-12-20T00:12:45;4.70;99.90
46508;DHT22;32223;53.654;10.014;2023-12-20T00:15:11;4.60;99.90
46508;DHT22;32223;53.654;10.014;2023-12-20T00:17:36;4.70;99.90
46508;DHT22;32223;53.654;10.014;2023-12-20T00:20:02;4.60;99.90
46508;DHT22;32223;53.654;10.014;2023-12-20T00:22:28;4.60;99.90
46508;DHT22;32223;53.654;10.014;2023-12-20T00:24:53;4.60;99.90
46508;DHT22;32223;53.654;10.014;2023-12-20T00:27:19;4.60;99.90
46508;DHT22;32223;53.654;10.014;2023-12-20T00:29:44;4.50;99.90
46508;DHT22;32223;53.654;10.014;2023-12-20T00:32:13;4.60;99.90
46508;DHT22;32223;53.654;10.014;2023-12-20T00:34:39;4.60;99.90
46508;DHT22;32223;53.654;10.014;2023-12-20T00:37:04;4.60;99.90
46508;DHT22;32223;53.654;10.014;2023-12-20T00:39:30;4.60;99.90
46508;DHT22;32223;53.654;10.014;2023-12-20T00:41:56;4.60;99.90
46508;DHT22;32223;53.654;10.014;2023-12-20T00:44:22;4.70;99.90
46508;DHT22;32223;53.654;10.014;2023-12-20T00:46:47;4.70;99.90
46508;DHT22;32223;53.654;10.014;2023-12-20T00:49:13;4.70;99.90
46508;DHT22;32223;53.654;10.014;2023-12-20T00:51:38;4.70;99.90
46508;DHT22;32223;53.654;10.014;2023-12-20T00:54:04;4.80;99.90
46508;DHT22;32223;53.654;10.014;2023-12-20T00:56:30;4.90;99.90
46508;DHT22;32223;53.654;10.014;2023-12-20T00:58:55;4.90;99.90
46508;DHT22;32223;53.654;10.014;2023-12-20T01:01:21;4.90;99.90
46508;DHT22;32223;53.654;10.014;2023-12-20T01:03:47;4.90;99.90
46508;DHT22;32223;53.654;10.014;2023-12-20T01:06:13;4.90;99.90
46508;DHT22;32223;53.654;10.014;2023-12-20T01:08:39;4.90;99.90
46508;DHT22;32223;53.654;10.014;2023-12-20T01:11:05;4.90;99.90
46508;DHT22;32223;53.654;10.014;2023-12-20T01:13:31;4.90;99.90
46508;DHT22;32223;53.654;10.014;2023-12-20T01:15:56;4.90;99.90
46508;DHT22;32223;53.654;10.014;2023-12-20T01:18:22;4.80;99.90
46508;DHT22;32223;53.654;10.014;2023-12-20T01:20:48;4.80;99.90
46508;DHT22;32223;53.654;10.014;2023-12-20T01:23:13;4.80;99.90
46508;DHT22;32223;53.654;10.014;2023-12-20T01:25:39;4.80;99.90
46508;DHT22;32223;53.654;10.014;2023-12-20T01:28:05;4.70;99.90
46508;DHT22;32223;53.654;10.014;2023-12-20T01:30:30;4.70;99.90
46508;DHT22;32223;53.654;10.014;2023-12-20T01:32:56;4.70;99.90
46508;DHT22;32223;53.654;10.014;2023-12-20T01:35:21;4.70;99.90
46508;DHT22;32223;53.654;10.014;2023-12-20T01:37:47;4.70;99.90
46508;DHT22;32223;53.654;10.014;2023-12-20T01:40:13;4.70;99.90
46508;DHT22;32223;53.654;10.014;2023-12-20T01:42:38;4.60;99.90
46508;DHT22;32223;53.654;10.014;2023-12-20T01:45:04;4.60;99.90
46508;DHT22;32223;53.654;10.014;2023-12-20T01:47:30;4.60;99.90
46508;DHT22;32223;53.654;10.014;2023-12-20T01:49:56;4.60;99.90
46508;DHT22;32223;53.654;10.014;2023-12-20T01:52:23;4.70;99.90
46508;DHT22;32223;53.654;10.014;2023-12-20T01:54:49;4.70;99.90
46508;DHT22;32223;53.654;10.014;2023-12-20T01:57:15;4.70;99.90
46508;DHT22;32223;53.654;10.014;2023-12-20T01:59:41;4.80;99.90
46508;DHT22;32223;53.654;10.014;2023-12-20T02:02:07;4.80;99.90
46508;DHT22;32223;53.654;10.014;2023-12-20T02:04:33;4.80;99.90
46508;DHT22;32223;53.654;10.014;2023-12-20T02:06:59;4.90;99.90
46508;DHT22;32223;53.654;10.014;2023-12-20T02:09:25;4.80;99.90
46508;DHT22;32223;53.654;10.014;2023-12-20T02:11:51;4.90;99.90
46508;DHT22;32223;53.654;10.014;2023-12-20T02:14:17;4.80;99.90
46508;DHT22;32223;53.654;10.014;2023-12-20T02:16:42;4.80;99.90
46508;DHT22;32223;53.654;10.014;2023-12-20T02:19:13;4.80;99.90
46508;DHT22;32223;53.654;10.014;2023-12-20T02:21:39;4.80;99.90
46508;DHT22;32223;53.654;10.014;2023-12-20T02:24:05;4.80;99.90
46508;DHT22;32223;53.654;10.014;2023-12-20T02:26:32;4.80;99.90
46508;DHT22;32223;53.654;10.014;2023-12-20T02:28:59;4.80;99.90
46508;DHT22;32223;53.654;10.014;2023-12-20T02:31:25;4.80;99.90
46508;DHT22;32223;53.654;10.014;2023-12-20T02:33:51;4.80;99.90
46508;DHT22;32223;53.654;10.014;2023-12-20T02:36:16;4.90;99.90
46508;DHT22;32223;53.654;10.014;2023-12-20T02:38:42;4.90;99.90
46508;DHT22;32223;53.654;10.014;2023-12-20T02:41:07;5.00;99.90
46508;DHT22;32223;53.654;10.014;2023-12-20T02:43:33;4.90;99.90
46508;DHT22;32223;53.654;10.014;2023-12-20T02:45:59;5.00;99.90
46508;DHT22;32223;53.654;10.014;2023-12-20T02:48:24;4.90;99.90
46508;DHT22;32223;53.654;10.014;2023-12-20T02:50:50;5.00;99.90
46508;DHT22;32223;53.654;10.014;2023-12-20T02:53:16;5.00;99.90
46508;DHT22;32223;53.654;10.014;2023-12-20T02:55:42;5.00;99.90
46508;DHT22;32223;53.654;10.014;2023-12-20T02:58:07;5.00;99.90
46508;DHT22;32223;53.654;10.014;2023-12-20T03:00:33;5.00;99.90
46508;DHT22;32223;53.654;10.014;2023-12-20T03:02:58;5.00;99.90
46508;DHT22;32223;53.654;10.014;2023-12-20T03:05:25;5.00;99.90
46508;DHT22;32223;53.654;10.014;2023-12-20T03:07:51;5.00;99.90
46508;DHT22;32223;53.654;10.014;2023-12-20T03:10:17;5.00;99.90
46508;DHT22;32223;53.654;10.014;2023-12-20T03:12:43;5.00;99.90
46508;DHT22;32223;53.654;10.014;2023-12-20T03:15:09;5.10;99.90
46508;DHT22;32223;53.654;10.014;2023-12-20T03:17:35;5.00;99.90
46508;DHT22;32223;53.654;10.014;2023-12-20T03:20:00;5.00;99.90
46508;DHT22;32223;53.654;10.014;2023-12-20T03:22:26;5.00;99.90
46508;DHT22;32223;53.654;10.014;2023-12-20T03:24:51;5.00;99.90
46508;DHT22;32223;53.654;10.014;2023-12-20T03:27:17;5.00;99.90
46508;DHT22;32223;53.654;10.014;2023-12-20T03:29:42;5.00;99.90
46508;DHT22;32223;53.654;10.014;2023-12-20T03:32:08;5.00;99.90
46508;DHT22;32223;53.654;10.014;2023-12-20T03:34:34;5.00;99.90
46508;DHT22;32223;53.654;10.014;2023-12-20T03:37:00;5.00;99.90
46508;DHT22;32223;53.654;10.014;2023-12-20T03:39:25;5.00;99.90
46508;DHT22;32223;53.654;10.014;2023-12-20T03:41:52;5.00;99.90
46508;DHT22;32223;53.654;10.014;2023-12-20T03:44:18;5.00;99.90
46508;DHT22;32223;53.654;10.014;2023-12-20T03:46:43;5.00;99.90
46508;DHT22;32223;53.654;10.014;2023-12-20T03:49:11;5.00;99.90
46508;DHT22;32223;53.654;10.014;2023-12-20T03:51:36;5.00;99.90
46508;DHT22;32223;53.654;10.014;2023-12-20T03:54:02;5.00;99.90
46508;DHT22;32223;53.654;10.014;2023-12-20T03:56:28;5.00;99.90
46508;DHT22;32223;53.654;10.014;2023-12-20T03:58:54;5.00;99.90
46508;DHT22;32223;53.654;10.014;2023-12-20T04:01:19;4.90;99.90
46508;DHT22;32223;53.654;10.014;2023-12-20T04:03:45;5.00;99.90
46508;DHT22;32223;53.654;10.014;2023-12-20T04:06:17;4.90;99.90
46508;DHT22;32223;53.654;10.014;2023-12-20T04:08:42;4.90;99.90
46508;DHT22;32223;53.654;10.014;2023-12-20T04:11:08;4.90;99.90
46508;DHT22;32223;53.654;10.014;2023-12-20T04:13:33;5.00;99.90
46508;DHT22;32223;53.654;10.014;2023-12-20T04:15:59;5.00;99.90
46508;DHT22;32223;53.654;10.014;2023-12-20T04:18:24;5.00;99.90
46508;DHT22;32223;53.654;10.014;2023-12-20T04:20:50;5.00;99.90
46508;DHT22;32223;53.654;10.014;2023-12-20T04:23:17;5.00;99.90
46508;DHT22;32223;53.654;10.014;2023-12-20T04:25:42;5.00;99.90
46508;DHT22;32223;53.654;10.014;2023-12-20T04:28:08;5.00;99.90
46508;DHT22;32223;53.654;10.014;2023-12-20T04:30:33;5.00;99.90
46508;DHT22;32223;53.654;10.014;2023-12-20T04:32:59;5.00;99.90
46508;DHT22;32223;53.654;10.014;2023-12-20T04:35:24;5.00;99.90
46508;DHT22;32223;53.654;10.014;2023-12-20T04:37:50;4.90;99.90
46508;DHT22;32223;53.654;10.014;2023-12-20T04:40:15;5.00;99.90
46508;DHT22;32223;53.654;10.014;2023-12-20T04:42:41;5.00;99.90
46508;DHT22;32223;53.654;10.014;2023-12-20T04:45:07;5.00;99.90
46508;DHT22;32223;53.654;10.014;2023-12-20T04:47:33;5.00;99.90
46508;DHT22;32223;53.654;10.014;2023-12-20T04:49:58;5.00;99.90
46508;DHT22;32223;53.654;10.014;2023-12-20T04:52:24;5.00;99.90
46508;DHT22;32223;53.654;10.014;2023-12-20T04:54:50;5.00;99.90
46508;DHT22;32223;53.654;10.014;2023-12-20T04:57:16;5.00;99.90
46508;DHT22;32223;53.654;10.014;2023-12-20T04:59:41;5.00;99.90
46508;DHT22;32223;53.654;10.014;2023-12-20T05:02:07;5.00;99.90
46508;DHT22;32223;53.654;10.014;2023-12-20T05:04:32;5.10;99.90
46508;DHT22;32223;53.654;10.014;2023-12-20T05:06:58;5.10;99.90
46508;DHT22;32223;53.654;10.014;2023-12-20T05:09:23;5.10;99.90
46508;DHT22;32223;53.654;10.014;2023-12-20T05:11:49;5.20;99.90
46508;DHT22;32223;53.654;10.014;2023-12-20T05:14:15;5.20;99.90
46508;DHT22;32223;53.654;10.014;2023-12-20T05:16:40;5.30;99.90
46508;DHT22;32223;53.654;10.014;2023-12-20T05:19:06;5.30;99.90
46508;DHT22;32223;53.654;10.014;2023-12-20T05:21:32;5.30;99.90
46508;DHT22;32223;53.654;10.014;2023-12-20T05:23:58;5.30;99.90
46508;DHT22;32223;53.654;10.014;2023-12-20T05:26:24;5.30;99.90
46508;DHT22;32223;53.654;10.014;2023-12-20T05:28:49;5.30;99.90
46508;DHT22;32223;53.654;10.014;2023-12-20T05:31:15;5.40;99.90
46508;DHT22;32223;53.654;10.014;2023-12-20T05:33:41;5.40;99.90
46508;DHT22;32223;53.654;10.014;2023-12-20T05:36:06;5.40;99.90
46508;DHT22;32223;53.654;10.014;2023-12-20T05:38:36;5.50;99.90
46508;DHT22;32223;53.654;10.014;2023-12-20T05:41:02;5.50;99.90
46508;DHT22;32223;53.654;10.014;2023-12-20T05:43:28;5.40;99.90
46508;DHT22;32223;53.654;10.014;2023-12-20T05:45:53;5.40;99.90
46508;DHT22;32223;53.654;10.014;2023-12-20T05:48:19;5.40;99.90
46508;DHT22;32223;53.654;10.014;2023-12-20T05:50:45;5.40;99.90
46508;DHT22;32223;53.654;10.014;2023-12-20T05:53:10;5.40;99.90
46508;DHT22;32223;53.654;10.014;2023-12-20T05:55:36;5.40;99.90
46508;DHT22;32223;53.654;10.014;2023-12-20T05:58:01;5.40;99.90
46508;DHT22;32223;53.654;10.014;2023-12-20T06:00:27;5.40;99.90
46508;DHT22;32223;53.654;10.014;2023-12-20T06:02:53;5.40;99.90
46508;DHT22;32223;53.654;10.014;2023-12-20T06:05:19;5.50;99.90
46508;DHT22;32223;53.654;10.014;2023-12-20T06:07:45;5.50;99.90
46508;DHT22;32223;53.654;10.014;2023-12-20T06:10:12;5.50;99.90
46508;DHT22;32223;53.654;10.014;2023-12-20T06:12:39;5.50;99.90
46508;DHT22;32223;53.654;10.014;2023-12-20T06:15:05;5.50;99.90
46508;DHT22;32223;53.654;10.014;2023-12-20T06:17:31;5.40;99.90
46508;DHT22;32223;53.654;10.014;2023-12-20T06:19:57;5.50;99.90
46508;DHT22;32223;53.654;10.014;2023-12-20T06:22:23;5.50;99.90
46508;DHT22;32223;53.654;10.014;2023-12-20T06:24:48;5.40;99.90
46508;DHT22;32223;53.654;10.014;2023-12-20T06:27:14;5.50;99.90
46508;DHT22;32223;53.654;10.014;2023-12-20T06:29:39;5.50;99.90
46508;DHT22;32223;53.654;10.014;2023-12-20T06:32:06;5.50;99.90
46508;DHT22;32223;53.654;10.014;2023-12-20T06:34:32;5.50;99.90
46508;DHT22;32223;53.654;10.014;2023-12-20T06:36:58;5.50;99.90
46508;DHT22;32223;53.654;10.014;2023-12-20T06:39:23;5.50;99.90
46508;DHT22;32223;53.654;10.014;2023-12-20T06:41:49;5.50;99.90
46508;DHT22;32223;53.654;10.014;2023-12-20T06:44:15;5.50;99.90
46508;DHT22;32223;53.654;10.014;2023-12-20T06:46:40;5.50;99.90
46508;DHT22;32223;53.654;10.014;2023-12-20T06:49:06;5.40;99.90
46508;DHT22;32223;53.654;10.014;2023-12-20T06:51:33;5.50;99.90
46508;DHT22;32223;53.654;10.014;2023-12-20T06:53:58;5.50;99.90
46508;DHT22;32223;53.654;10.014;2023-12-20T06:56:25;5.50;99.90
46508;DHT22;32223;53.654;10.014;2023-12-20T06:58:51;5.50;99.90
46508;DHT22;32223;53.654;10.014;2023-12-20T07:01:16;5.50;99.90
46508;DHT22;32223;53.654;10.014;2023-12-20T07:03:42;5.50;99.90
46508;DHT22;32223;53.654;10.014;2023-12-20T07:06:08;5.50;99.90
46508;DHT22;32223;53.654;10.014;2023-12-20T07:08:34;5.50;99.90
46508;DHT22;32223;53.654;10.014;2023-12-20T07:10:59;5.50;99.90
46508;DHT22;32223;53.654;10.014;2023-12-20T07:13:25;5.50;99.90
46508;DHT22;32223;53.654;10.014;2023-12-20T07:15:51;5.50;99.90
46508;DHT22;32223;53.654;10.014;2023-12-20T07:18:17;5.50;99.90
46508;DHT22;32223;53.654;10.014;2023-12-20T07:20:43;5.50;99.90
46508;DHT22;32223;53.654;10.014;2023-12-20T07:23:08;5.50;99.90
46508;DHT22;32223;53.654;10.014;2023-12-20T07:25:34;5.50;99.90
46508;DHT22;32223;53.654;10.014;2023-12-20T07:28:00;5.50;99.90
46508;DHT22;32223;53.654;10.014;2023-12-20T07:30:25;5.60;99.90
46508;DHT22;32223;53.654;10.014;2023-12-20T07:32:51;5.60;99.90
46508;DHT22;32223;53.654;10.014;2023-12-20T07:35:17;5.50;99.90
46508;DHT22;32223;53.654;10.014;2023-12-20T07:37:43;5.60;99.90
46508;DHT22;32223;53.654;10.014;2023-12-20T07:40:09;5.60;99.90
46508;DHT22;32223;53.654;10.014;2023-12-20T07:42:35;5.60;99.90
46508;DHT22;32223;53.654;10.014;2023-12-20T07:45:01;5.60;99.90
46508;DHT22;32223;53.654;10.014;2023-12-20T07:47:26;5.60;99.90
46508;DHT22;32223;53.654;10.014;2023-12-20T07:49:52;5.60;99.90
46508;DHT22;32223;53.654;10.014;2023-12-20T07:52:18;5.60;99.90
46508;DHT22;32223;53.654;10.014;2023-12-20T07:54:45;5.60;99.90
46508;DHT22;32223;53.654;10.014;2023-12-20T07:57:11;5.70;99.90
46508;DHT22;32223;53.654;10.014;2023-12-20T07:59:37;5.70;99.90
46508;DHT22;32223;53.654;10.014;2023-12-20T08:02:02;5.70;99.90
46508;DHT22;32223;53.654;10.014;2023-12-20T08:04:28;5.70;99.90
46508;DHT22;32223;53.654;10.014;2023-12-20T08:06:54;5.70;99.90
46508;DHT22;32223;53.654;10.014;2023-12-20T08:09:19;5.70;99.90
46508;DHT22;32223;53.654;10.014;2023-12-20T08:11:46;5.70;99.90
46508;DHT22;32223;53.654;10.014;2023-12-20T08:14:12;5.70;99.90
46508;DHT22;32223;53.654;10.014;2023-12-20T08:16:37;5.70;99.90
46508;DHT22;32223;53.654;10.014;2023-12-20T08:19:03;5.80;99.90
46508;DHT22;32223;53.654;10.014;2023-12-20T08:21:28;5.80;99.90
46508;DHT22;32223;53.654;10.014;2023-12-20T08:23:55;5.80;99.90
46508;DHT22;32223;53.654;10.014;2023-12-20T08:26:21;5.90;99.90
46508;DHT22;32223;53.654;10.014;2023-12-20T08:28:48;5.90;99.90
46508;DHT22;32223;53.654;10.014;2023-12-20T08:31:17;5.90;99.90
46508;DHT22;32223;53.654;10.014;2023-12-20T08:33:47;5.90;99.90
46508;DHT22;32223;53.654;10.014;2023-12-20T08:36:13;5.90;99.90
46508;DHT22;32223;53.654;10.014;2023-12-20T08:38:39;5.90;99.90
46508;DHT22;32223;53.654;10.014;2023-12-20T08:41:05;6.00;99.90
46508;DHT22;32223;53.654;10.014;2023-12-20T08:43:31;6.00;99.90
46508;DHT22;32223;53.654;10.014;2023-12-20T08:45:57;6.10;99.90
46508;DHT22;32223;53.654;10.014;2023-12-20T08:48:23;6.10;99.90
46508;DHT22;32223;53.654;10.014;2023-12-20T08:50:49;6.20;99.90
46508;DHT22;32223;53.654;10.014;2023-12-20T08:53:15;6.20;99.90
46508;DHT22;32223;53.654;10.014;2023-12-20T08:55:42;6.30;99.90
46508;DHT22;32223;53.654;10.014;2023-12-20T08:58:08;6.20;99.90
46508;DHT22;32223;53.654;10.014;2023-12-20T09:00:34;6.20;99.90
46508;DHT22;32223;53.654;10.014;2023-12-20T09:03:01;6.20;99.90
46508;DHT22;32223;53.654;10.014;2023-12-20T09:05:26;6.20;99.90
46508;DHT22;32223;53.654;10.014;2023-12-20T09:07:52;6.20;99.90
46508;DHT22;32223;53.654;10.014;2023-12-20T09:10:18;6.10;99.90
46508;DHT22;32223;53.654;10.014;2023-12-20T09:12:51;6.10;99.90
46508;DHT22;32223;53.654;10.014;2023-12-20T09:15:16;6.10;99.90
46508;DHT22;32223;53.654;10.014;2023-12-20T09:17:42;6.10;99.90
46508;DHT22;32223;53.654;10.014;2023-12-20T09:20:09;6.00;99.90
46508;DHT22;32223;53.654;10.014;2023-12-20T09:22:35;5.90;99.90
46508;DHT22;32223;53.654;10.014;2023-12-20T09:25:00;5.80;99.90
46508;DHT22;32223;53.654;10.014;2023-12-20T09:27:27;5.80;99.90
46508;DHT22;32223;53.654;10.014;2023-12-20T09:29:53;5.70;99.90
46508;DHT22;32223;53.654;10.014;2023-12-20T09:32:19;5.70;99.90
46508;DHT22;32223;53.654;10.014;2023-12-20T09:34:46;5.70;99.90
46508;DHT22;32223;53.654;10.014;2023-12-20T09:37:13;5.70;99.90
46508;DHT22;32223;53.654;10.014;2023-12-20T09:39:39;5.70;99.90
46508;DHT22;32223;53.654;10.014;2023-12-20T09:42:06;5.70;99.90
46508;DHT22;32223;53.654;10.014;2023-12-20T09:44:32;5.70;99.90
46508;DHT22;32223;53.654;10.014;2023-12-20T09:47:05;5.70;99.90
46508;DHT22;32223;53.654;10.014;2023-12-20T09:49:32;5.80;99.90
46508;DHT22;32223;53.654;10.014;2023-12-20T09:52:00;5.80;99.90
46508;DHT22;32223;53.654;10.014;2023-12-20T09:54:27;5.70;99.90
46508;DHT22;32223;53.654;10.014;2023-12-20T09:56:53;5.70;99.90
46508;DHT22;32223;53.654;10.014;2023-12-20T09:59:19;5.60;99.90
46508;DHT22;32223;53.654;10.014;2023-12-20T10:01:45;5.50;99.90
46508;DHT22;32223;53.654;10.014;2023-12-20T10:04:12;5.50;99.90
46508;DHT22;32223;53.654;10.014;2023-12-20T10:06:41;5.40;99.90
46508;DHT22;32223;53.654;10.014;2023-12-20T10:09:08;5.40;99.90
46508;DHT22;32223;53.654;10.014;2023-12-20T10:11:40;5.30;99.90
46508;DHT22;32223;53.654;10.014;2023-12-20T10:14:07;5.30;99.90
46508;DHT22;32223;53.654;10.014;2023-12-20T10:16:33;5.30;99.90
46508;DHT22;32223;53.654;10.014;2023-12-20T10:19:00;5.30;99.90
46508;DHT22;32223;53.654;10.014;2023-12-20T10:21:26;5.30;99.90
46508;DHT22;32223;53.654;10.014;2023-12-20T10:23:57;5.20;99.90
46508;DHT22;32223;53.654;10.014;2023-12-20T10:26:26;5.20;99.90
46508;DHT22;32223;53.654;10.014;2023-12-20T10:28:56;5.20;99.90
46508;DHT22;32223;53.654;10.014;2023-12-20T10:31:30;5.10;99.90
46508;DHT22;32223;53.654;10.014;2023-12-20T10:33:57;5.10;99.90
46508;DHT22;32223;53.654;10.014;2023-12-20T10:36:25;5.10;99.90
46508;DHT22;32223;53.654;10.014;2023-12-20T10:38:52;5.10;99.90
46508;DHT22;32223;53.654;10.014;2023-12-20T10:43:51;5.20;99.90
46508;DHT22;32223;53.654;10.014;2023-12-20T10:46:18;5.10;99.90
46508;DHT22;32223;53.654;10.014;2023-12-20T10:48:45;5.10;99.90
46508;DHT22;32223;53.654;10.014;2023-12-20T10:51:14;5.10;99.90
46508;DHT22;32223;53.654;10.014;2023-12-20T10:53:43;5.00;99.90
46508;DHT22;32223;53.654;10.014;2023-12-20T10:56:12;5.00;99.90
46508;DHT22;32223;53.654;10.014;2023-12-20T10:58:42;5.00;99.90
46508;DHT22;32223;53.654;10.014;2023-12-20T11:01:16;5.00;99.90
46508;DHT22;32223;53.654;10.014;2023-12-20T11:03:48;5.10;99.90
46508;DHT22;32223;53.654;10.014;2023-12-20T11:06:36;5.00;99.90
46508;DHT22;32223;53.654;10.014;2023-12-20T11:11:56;5.00;99.90
46508;DHT22;32223;53.654;10.014;2023-12-20T11:14:45;5.00;99.90
46508;DHT22;32223;53.654;10.014;2023-12-20T11:17:11;5.00;99.90
46508;DHT22;32223;53.654;10.014;2023-12-20T11:22:27;5.00;99.90
46508;DHT22;32223;53.654;10.014;2023-12-20T11:25:13;4.90;99.90
46508;DHT22;32223;53.654;10.014;2023-12-20T11:27:42;4.90;99.90
46508;DHT22;32223;53.654;10.014;2023-12-20T11:30:09;4.90;99.90
46508;DHT22;32223;53.654;10.014;2023-12-20T11:32:36;4.90;99.90
46508;DHT22;32223;53.654;10.014;2023-12-20T11:35:17;4.90;99.90
46508;DHT22;32223;53.654;10.014;2023-12-20T11:37:45;4.90;99.90
46508;DHT22;32223;53.654;10.014;2023-12-20T11:40:17;5.00;99.90
46508;DHT22;32223;53.654;10.014;2023-12-20T11:42:44;5.10;99.90
46508;DHT22;32223;53.654;10.014;2023-12-20T11:45:13;5.20;99.90
46508;DHT22;32223;53.654;10.014;2023-12-20T11:47:42;5.40;99.90
46508;DHT22;32223;53.654;10.014;2023-12-20T11:50:07;5.70;99.90
46508;DHT22;32223;53.654;10.014;2023-12-20T11:52:33;6.20;99.90
46508;DHT22;32223;53.654;10.014;2023-12-20T11:54:58;7.10;99.90
46508;DHT22;32223;53.654;10.014;2023-12-20T11:57:25;7.30;99.90
46508;DHT22;32223;53.654;10.014;2023-12-20T11:59:51;7.20;99.90
46508;DHT22;32223;53.654;10.014;2023-12-20T12:02:16;7.00;99.90
46508;DHT22;32223;53.654;10.014;2023-12-20T12:04:42;6.60;99.90
46508;DHT22;32223;53.654;10.014;2023-12-20T12:07:08;6.40;99.90
46508;DHT22;32223;53.654;10.014;2023-12-20T12:09:34;6.10;99.90
46508;DHT22;32223;53.654;10.014;2023-12-20T12:12:00;6.10;99.90
46508;DHT22;32223;53.654;10.014;2023-12-20T12:14:26;6.70;99.90
46508;DHT22;32223;53.654;10.014;2023-12-20T12:16:52;7.40;99.90
46508;DHT22;32223;53.654;10.014;2023-12-20T12:19:22;8.30;99.90
46508;DHT22;32223;53.654;10.014;2023-12-20T12:21:49;9.00;99.90
46508;DHT22;32223;53.654;10.014;2023-12-20T12:24:15;9.70;99.90
46508;DHT22;32223;53.654;10.014;2023-12-20T12:26:40;10.10;99.90
46508;DHT22;32223;53.654;10.014;2023-12-20T12:29:09;10.60;99.90
46508;DHT22;32223;53.654;10.014;2023-12-20T12:31:35;10.80;99.90
46508;DHT22;32223;53.654;10.014;2023-12-20T12:34:01;10.50;99.90
46508;DHT22;32223;53.654;10.014;2023-12-20T12:36:30;9.80;99.90
46508;DHT22;32223;53.654;10.014;2023-12-20T12:38:57;9.30;99.90
46508;DHT22;32223;53.654;10.014;2023-12-20T12:41:23;9.10;99.90
46508;DHT22;32223;53.654;10.014;2023-12-20T12:43:49;8.90;99.90
46508;DHT22;32223;53.654;10.014;2023-12-20T12:46:14;8.60;99.90
46508;DHT22;32223;53.654;10.014;2023-12-20T12:48:40;8.40;99.90
46508;DHT22;32223;53.654;10.014;2023-12-20T12:51:05;8.50;99.90
46508;DHT22;32223;53.654;10.014;2023-12-20T12:53:32;8.70;99.90
46508;DHT22;32223;53.654;10.014;2023-12-20T12:55:58;8.40;99.90
46508;DHT22;32223;53.654;10.014;2023-12-20T12:58:23;8.20;99.90
46508;DHT22;32223;53.654;10.014;2023-12-20T13:00:51;8.20;99.90
46508;DHT22;32223;53.654;10.014;2023-12-20T13:03:16;8.10;99.90
46508;DHT22;32223;53.654;10.014;2023-12-20T13:05:42;8.10;99.90
46508;DHT22;32223;53.654;10.014;2023-12-20T13:08:08;7.80;99.90
46508;DHT22;32223;53.654;10.014;2023-12-20T13:10:34;7.80;99.90
46508;DHT22;32223;53.654;10.014;2023-12-20T13:13:00;7.70;99.90
46508;DHT22;32223;53.654;10.014;2023-12-20T13:15:26;7.50;99.90
46508;DHT22;32223;53.654;10.014;2023-12-20T13:17:51;7.40;99.90
46508;DHT22;32223;53.654;10.014;2023-12-20T13:20:17;7.80;99.90
46508;DHT22;32223;53.654;10.014;2023-12-20T13:22:42;8.30;99.90
46508;DHT22;32223;53.654;10.014;2023-12-20T13:25:08;8.90;99.90
46508;DHT22;32223;53.654;10.014;2023-12-20T13:27:34;9.40;99.90
46508;DHT22;32223;53.654;10.014;2023-12-20T13:30:00;9.70;99.90
46508;DHT22;32223;53.654;10.014;2023-12-20T13:32:25;9.60;99.90
46508;DHT22;32223;53.654;10.014;2023-12-20T13:34:51;9.60;99.90
46508;DHT22;32223;53.654;10.014;2023-12-20T13:37:17;9.30;99.90
46508;DHT22;32223;53.654;10.014;2023-12-20T13:39:42;8.80;99.90
46508;DHT22;32223;53.654;10.014;2023-12-20T13:42:08;8.20;99.90
46508;DHT22;32223;53.654;10.014;2023-12-20T13:44:34;7.80;99.90
46508;DHT22;32223;53.654;10.014;2023-12-20T13:46:59;7.50;99.90
46508;DHT22;32223;53.654;10.014;2023-12-20T13:49:25;7.20;99.90
46508;DHT22;32223;53.654;10.014;2023-12-20T13:51:51;6.90;99.90
46508;DHT22;32223;53.654;10.014;2023-12-20T13:54:16;6.70;99.90
46508;DHT22;32223;53.654;10.014;2023-12-20T13:56:45;6.60;99.90
46508;DHT22;32223;53.654;10.014;2023-12-20T13:59:11;6.40;99.90
46508;DHT22;32223;53.654;10.014;2023-12-20T14:01:38;6.40;99.90
46508;DHT22;32223;53.654;10.014;2023-12-20T14:04:03;6.30;99.90
46508;DHT22;32223;53.654;10.014;2023-12-20T14:06:29;6.30;99.90
46508;DHT22;32223;53.654;10.014;2023-12-20T14:08:55;6.10;99.90
46508;DHT22;32223;53.654;10.014;2023-12-20T14:11:21;6.10;99.90
46508;DHT22;32223;53.654;10.014;2023-12-20T14:13:46;6.00;99.90
46508;DHT22;32223;53.654;10.014;2023-12-20T14:16:12;6.00;99.90
46508;DHT22;32223;53.654;10.014;2023-12-20T14:18:38;5.90;99.90
46508;DHT22;32223;53.654;10.014;2023-12-20T14:21:05;5.90;99.90
46508;DHT22;32223;53.654;10.014;2023-12-20T14:23:31;5.90;99.90
46508;DHT22;32223;53.654;10.014;2023-12-20T14:25:59;5.90;99.90
46508;DHT22;32223;53.654;10.014;2023-12-20T14:28:25;5.90;99.90
46508;DHT22;32223;53.654;10.014;2023-12-20T14:30:51;5.80;99.90
46508;DHT22;32223;53.654;10.014;2023-12-20T14:33:16;5.80;99.90
46508;DHT22;32223;53.654;10.014;2023-12-20T14:35:42;5.90;99.90
46508;DHT22;32223;53.654;10.014;2023-12-20T14:38:09;5.80;99.90
46508;DHT22;32223;53.654;10.014;2023-12-20T14:40:35;5.80;99.90
46508;DHT22;32223;53.654;10.014;2023-12-20T14:43:01;5.80;99.90
46508;DHT22;32223;53.654;10.014;2023-12-20T14:45:30;5.80;99.90
46508;DHT22;32223;53.654;10.014;2023-12-20T14:47:56;5.70;99.90
46508;DHT22;32223;53.654;10.014;2023-12-20T14:50:22;5.60;99.90
46508;DHT22;32223;53.654;10.014;2023-12-20T14:52:47;5.60;99.90
46508;DHT22;32223;53.654;10.014;2023-12-20T14:55:13;5.60;99.90
46508;DHT22;32223;53.654;10.014;2023-12-20T14:57:39;5.50;99.90
46508;DHT22;32223;53.654;10.014;2023-12-20T15:00:05;5.60;99.90
46508;DHT22;32223;53.654;10.014;2023-12-20T15:02:31;5.70;99.90
46508;DHT22;32223;53.654;10.014;2023-12-20T15:04:57;5.80;99.90
46508;DHT22;32223;53.654;10.014;2023-12-20T15:07:22;5.80;99.90
46508;DHT22;32223;53.654;10.014;2023-12-20T15:09:48;5.80;99.90
46508;DHT22;32223;53.654;10.014;2023-12-20T15:12:14;5.70;99.90
46508;DHT22;32223;53.654;10.014;2023-12-20T15:14:40;5.70;99.90
46508;DHT22;32223;53.654;10.014;2023-12-20T15:17:05;5.60;99.90
46508;DHT22;32223;53.654;10.014;2023-12-20T15:19:31;5.60;99.90
46508;DHT22;32223;53.654;10.014;2023-12-20T15:21:57;5.70;99.90
46508;DHT22;32223;53.654;10.014;2023-12-20T15:24:24;5.70;99.90
46508;DHT22;32223;53.654;10.014;2023-12-20T15:26:54;5.80;99.90
46508;DHT22;32223;53.654;10.014;2023-12-20T15:29:21;5.70;99.90
46508;DHT22;32223;53.654;10.014;2023-12-20T15:31:47;5.70;99.90